Time;durP1;ratioP1;P1;durP2;ratioP2;P2;SDS_P1;SDS_P2;PMS_P1;PMS_P2;Temp;Humidity;BMP_temperature;BMP_pressure;BME280_temperature;BME280_humidity;BME280_pressure;Samples;Min_cycle;Max_cycle;Signal;HPM_P1;HPM_P2
2023/03/21 00:00:28;;;;;;;;;;;;;;;14.73;50.10;100395.88;5404190;32;37209;-82
2023/03/21 00:03:31;;;;;;;;;;;;;;;14.76;49.31;100397.53;5387196;32;34735;-83
2023/03/21 00:06:35;;;;;;;;;;;;;;;14.50;50.37;100391.03;5386192;32;35462;-61
2023/03/21 00:09:37;;;;;;;;;;;;;;;14.84;49.51;100380.28;5378699;32;34742;-83
2023/03/21 00:12:39;;;;;;;;;;;;;;;14.69;50.02;100375.00;5387946;32;44669;-84
2023/03/21 00:15:50;;;;;;;;;;;;;;;14.70;49.78;100379.34;5393054;32;35122;-83
2023/03/21 00:19:13;;;;;;;;;;;;;;;14.09;51.32;100386.16;5378655;32;45679;-83
2023/03/21 00:22:15;;;;;;;;;;;;;;;14.48;50.64;100366.44;5389418;32;34495;-62
2023/03/21 00:25:17;;;;;;;;;;;;;;;13.93;51.89;100378.22;5388132;32;34949;-61
2023/03/21 00:28:19;;;;;;;;;;;;;;;14.23;51.21;100366.91;5402938;32;34871;-61
2023/03/21 00:31:21;;;;;;;;;;;;;;;13.41;53.21;100372.16;5387741;32;35437;-82
2023/03/21 00:34:23;;;;;;;;;;;;;;;14.00;51.32;100374.31;5391620;32;35365;-70
2023/03/21 00:37:44;;;;;;;;;;;;;;;13.81;52.14;100371.78;5400348;32;44375;-63
2023/03/21 00:40:46;;;;;;;;;;;;;;;14.18;51.04;100359.25;5384097;32;34778;-63
2023/03/21 00:43:50;;;;;;;;;;;;;;;13.73;52.29;100362.56;5403099;32;35096;-82
2023/03/21 00:46:52;;;;;;;;;;;;;;;13.96;51.67;100350.75;5387335;32;34659;-60
2023/03/21 00:50:07;;;;;;;;;;;;;;;14.11;51.22;100360.53;5396099;32;34412;-82
2023/03/21 00:53:09;;;;;;;;;;;;;;;13.57;52.71;100359.00;5402566;32;43583;-82
2023/03/21 00:56:11;;;;;;;;;;;;;;;13.70;52.34;100362.72;5374403;32;36215;-82
2023/03/21 00:59:13;;;;;;;;;;;;;;;13.22;53.55;100364.31;5405585;32;34392;-82
2023/03/21 01:02:21;;;;;;;;;;;;;;;13.23;53.64;100352.81;5379999;32;34560;-84
2023/03/21 01:08:48;;;;;;;;;;;;;;;13.57;52.78;100354.56;5395696;32;34971;-61
2023/03/21 01:11:54;;;;;;;;;;;;;;;13.20;54.14;100358.19;5384396;32;37223;-82
2023/03/21 01:14:56;;;;;;;;;;;;;;;13.62;52.72;100334.06;5401637;32;34795;-82
2023/03/21 01:17:58;;;;;;;;;;;;;;;13.50;53.05;100346.13;5384479;32;34891;-62
2023/03/21 01:21:00;;;;;;;;;;;;;;;13.25;53.89;100345.66;5406156;32;34689;-82
2023/03/21 01:24:02;;;;;;;;;;;;;;;13.88;51.96;100337.97;5380493;32;34549;-82
2023/03/21 01:27:04;;;;;;;;;;;;;;;13.12;54.00;100336.63;5383526;32;34820;-82
2023/03/21 01:30:06;;;;;;;;;;;;;;;13.35;53.82;100346.06;5395121;32;34808;-82
2023/03/21 01:33:20;;;;;;;;;;;;;;;13.35;54.21;100339.00;5384580;32;35025;-83
2023/03/21 01:36:23;;;;;;;;;;;;;;;13.59;53.30;100347.44;5401231;32;33483;-69
2023/03/21 01:39:26;;;;;;;;;;;;;;;13.47;53.24;100341.00;5389799;32;34662;-82
2023/03/21 01:42:28;;;;;;;;;;;;;;;13.42;53.86;100350.09;5397294;32;36388;-61
2023/03/21 01:45:50;;;;;;;;;;;;;;;13.39;53.79;100345.81;5374418;32;34962;-62
2023/03/21 01:48:53;;;;;;;;;;;;;;;12.94;55.49;100349.78;5391575;32;35509;-61
2023/03/21 01:52:04;;;;;;;;;;;;;;;13.52;53.97;100344.28;5394509;32;34828;-61
2023/03/21 01:55:14;;;;;;;;;;;;;;;13.19;55.07;100346.78;5388643;32;44491;-60
2023/03/21 01:58:17;;;;;;;;;;;;;;;13.76;53.29;100349.19;5403941;32;34503;-63
2023/03/21 02:01:21;;;;;;;;;;;;;;;13.58;53.70;100348.34;5369722;32;36184;-82
2023/03/21 02:04:27;;;;;;;;;;;;;;;13.01;54.69;100347.75;5366788;32;34636;-61
2023/03/21 02:07:30;;;;;;;;;;;;;;;13.02;54.61;100344.16;5386941;32;36047;-70
2023/03/21 02:10:32;;;;;;;;;;;;;;;12.81;55.79;100338.16;5390301;32;34437;-83
2023/03/21 02:13:35;;;;;;;;;;;;;;;13.30;54.49;100353.34;5404596;32;35270;-62
2023/03/21 02:16:37;;;;;;;;;;;;;;;13.32;54.69;100352.34;5391469;32;36340;-83
2023/03/21 02:19:57;;;;;;;;;;;;;;;13.84;53.23;100344.34;5395815;32;45564;-84
2023/03/21 02:23:09;;;;;;;;;;;;;;;13.87;52.81;100344.19;5395507;32;36705;-82
2023/03/21 02:26:29;;;;;;;;;;;;;;;14.24;51.76;100343.06;5393326;32;47379;-82
2023/03/21 02:30:03;;;;;;;;;;;;;;;14.66;50.70;100333.69;5401047;32;46652;-60
2023/03/21 02:33:14;;;;;;;;;;;;;;;14.35;51.68;100337.16;5376034;32;34918;-82
2023/03/21 02:36:21;;;;;;;;;;;;;;;14.39;51.01;100340.50;5388621;32;44547;-60
2023/03/21 02:39:41;;;;;;;;;;;;;;;14.42;51.32;100340.31;5401730;32;35097;-61
2023/03/21 02:42:49;;;;;;;;;;;;;;;14.77;50.37;100338.37;5386645;32;47165;-82
2023/03/21 02:46:04;;;;;;;;;;;;;;;14.08;52.32;100350.09;5398127;32;35623;-62
2023/03/21 02:49:08;;;;;;;;;;;;;;;13.77;52.89;100343.81;5377525;32;34604;-82
2023/03/21 02:52:11;;;;;;;;;;;;;;;13.72;53.72;100353.78;5376740;32;44778;-81
2023/03/21 02:55:27;;;;;;;;;;;;;;;14.27;52.03;100342.03;5403476;32;35218;-61
2023/03/21 02:58:29;;;;;;;;;;;;;;;13.77;53.55;100358.81;5376656;32;34894;-83
2023/03/21 03:01:31;;;;;;;;;;;;;;;14.00;52.79;100347.03;5401202;32;34780;-82
2023/03/21 03:04:33;;;;;;;;;;;;;;;14.18;52.09;100348.69;5373374;32;35419;-60
2023/03/21 03:07:41;;;;;;;;;;;;;;;13.91;52.67;100351.03;5396932;32;35464;-82
2023/03/21 03:11:01;;;;;;;;;;;;;;;13.56;53.95;100350.22;5394108;32;46874;-60
2023/03/21 03:14:22;;;;;;;;;;;;;;;14.68;50.83;100346.81;5390691;32;34300;-81
2023/03/21 03:17:56;;;;;;;;;;;;;;;14.48;50.68;100348.78;5403687;32;35290;-61
2023/03/21 03:21:01;;;;;;;;;;;;;;;13.05;54.70;100357.19;5387114;32;34850;-82
2023/03/21 03:24:09;;;;;;;;;;;;;;;12.91;55.06;100360.50;5393885;32;36090;-60
2023/03/21 03:27:16;;;;;;;;;;;;;;;12.96;54.63;100349.75;5405712;32;44966;-81
2023/03/21 03:30:18;;;;;;;;;;;;;;;13.54;53.51;100352.09;5387842;32;34231;-82
2023/03/21 03:33:22;;;;;;;;;;;;;;;13.57;53.55;100356.38;5412516;32;34616;-70
2023/03/21 03:36:26;;;;;;;;;;;;;;;13.41;53.40;100349.25;5382310;32;34363;-81
2023/03/21 03:39:37;;;;;;;;;;;;;;;13.55;53.51;100364.38;5382238;32;34968;-60
2023/03/21 03:42:44;;;;;;;;;;;;;;;12.28;56.59;100344.22;5402773;32;45373;-60
2023/03/21 03:45:48;;;;;;;;;;;;;;;13.50;53.52;100351.41;5377222;32;34950;-60
2023/03/21 03:48:54;;;;;;;;;;;;;;;13.08;54.18;100349.13;5397386;32;35587;-61
2023/03/21 03:51:56;;;;;;;;;;;;;;;13.69;53.27;100345.16;5378161;32;35415;-61
2023/03/21 03:54:58;;;;;;;;;;;;;;;13.49;52.87;100336.50;5401138;32;35982;-61
2023/03/21 03:58:00;;;;;;;;;;;;;;;13.05;54.82;100349.28;5390152;32;35287;-83
2023/03/21 04:01:06;;;;;;;;;;;;;;;13.77;52.85;100361.44;5379894;32;34158;-84
2023/03/21 04:04:08;;;;;;;;;;;;;;;13.27;53.42;100362.31;5395030;32;38343;-62
2023/03/21 04:07:14;;;;;;;;;;;;;;;12.58;55.78;100356.88;5385806;32;35289;-81
2023/03/21 04:10:17;;;;;;;;;;;;;;;12.30;57.30;100370.47;5386943;32;34875;-82
2023/03/21 04:13:19;;;;;;;;;;;;;;;13.15;54.82;100355.81;5386913;32;35319;-60
2023/03/21 04:16:22;;;;;;;;;;;;;;;12.39;56.68;100357.75;5396548;32;34252;-71
2023/03/21 04:19:24;;;;;;;;;;;;;;;12.71;56.21;100361.50;5379021;32;35065;-82
2023/03/21 04:22:25;;;;;;;;;;;;;;;13.14;54.57;100351.47;5390350;32;35879;-83
2023/03/21 04:25:27;;;;;;;;;;;;;;;13.39;53.75;100363.44;5392740;32;34914;-82
2023/03/21 04:28:35;;;;;;;;;;;;;;;13.25;54.34;100364.12;5396026;32;35046;-83
2023/03/21 04:31:40;;;;;;;;;;;;;;;13.28;53.88;100364.00;5399545;32;35250;-84
2023/03/21 04:34:48;;;;;;;;;;;;;;;13.01;54.98;100361.78;5376627;32;46707;-83
2023/03/21 04:37:51;;;;;;;;;;;;;;;13.00;55.02;100375.03;5383190;32;34600;-61
2023/03/21 04:40:53;;;;;;;;;;;;;;;13.34;54.70;100361.06;5393836;32;35367;-61
2023/03/21 04:43:55;;;;;;;;;;;;;;;13.38;53.82;100362.59;5390851;32;35007;-61
2023/03/21 04:46:57;;;;;;;;;;;;;;;13.01;55.60;100361.78;5400284;32;34256;-62
2023/03/21 04:49:59;;;;;;;;;;;;;;;13.12;55.91;100358.59;5386026;32;35711;-60
2023/03/21 04:53:00;;;;;;;;;;;;;;;13.17;55.60;100355.72;5405604;32;34934;-61
2023/03/21 04:56:02;;;;;;;;;;;;;;;12.67;56.42;100353.78;5384730;32;35899;-60
2023/03/21 04:59:06;;;;;;;;;;;;;;;12.76;56.38;100356.00;5384295;32;35379;-61
2023/03/21 05:02:08;;;;;;;;;;;;;;;13.31;55.18;100353.28;5398054;32;35136;-62
2023/03/21 05:05:10;;;;;;;;;;;;;;;14.21;51.91;100350.28;5372741;32;34994;-60
2023/03/21 05:08:13;;;;;;;;;;;;;;;14.33;51.03;100355.75;5407082;32;35616;-82
2023/03/21 05:11:15;;;;;;;;;;;;;;;13.51;53.45;100360.16;5385293;32;35420;-62
2023/03/21 05:14:19;;;;;;;;;;;;;;;12.64;56.21;100360.06;5404460;32;34994;-69
2023/03/21 05:17:23;;;;;;;;;;;;;;;12.93;55.91;100371.00;5386070;32;34968;-69
2023/03/21 05:20:25;;;;;;;;;;;;;;;12.96;55.56;100371.69;5396073;32;34991;-71
2023/03/21 05:23:30;;;;;;;;;;;;;;;12.41;57.11;100378.75;5404922;32;35291;-61
2023/03/21 05:26:32;;;;;;;;;;;;;;;12.95;55.92;100362.09;5377495;32;34590;-82
2023/03/21 05:29:34;;;;;;;;;;;;;;;12.88;55.67;100365.97;5402506;32;34592;-61
2023/03/21 05:32:36;;;;;;;;;;;;;;;13.29;55.48;100368.34;5386887;32;35335;-79
2023/03/21 05:35:38;;;;;;;;;;;;;;;14.21;52.65;100374.09;5411401;32;38467;-60
2023/03/21 05:38:44;;;;;;;;;;;;;;;14.77;50.74;100373.63;5389515;32;35834;-61
2023/03/21 05:41:46;;;;;;;;;;;;;;;15.14;48.95;100376.81;5381985;32;34021;-61
2023/03/21 05:44:48;;;;;;;;;;;;;;;14.77;50.68;100370.97;5390534;32;33907;-61
2023/03/21 05:47:50;;;;;;;;;;;;;;;15.79;47.91;100368.56;5391138;32;34802;-81
2023/03/21 05:50:52;;;;;;;;;;;;;;;16.56;46.29;100373.44;5403225;32;34993;-83
2023/03/21 05:53:54;;;;;;;;;;;;;;;16.81;44.93;100374.53;5388450;32;35953;-61
2023/03/21 05:56:56;;;;;;;;;;;;;;;15.68;47.50;100371.88;5404193;32;34974;-83
2023/03/21 05:59:58;;;;;;;;;;;;;;;15.88;46.73;100382.09;5391610;32;36053;-82
2023/03/21 06:03:00;;;;;;;;;;;;;;;17.26;43.72;100379.47;5394324;32;35093;-61
2023/03/21 06:06:02;;;;;;;;;;;;;;;15.82;46.89;100385.13;5384561;32;35658;-61
2023/03/21 06:09:05;;;;;;;;;;;;;;;15.78;46.80;100380.09;5384471;32;35683;-80
2023/03/21 06:12:07;;;;;;;;;;;;;;;15.79;47.29;100381.81;5396409;32;33676;-80
2023/03/21 06:15:09;;;;;;;;;;;;;;;16.30;45.72;100369.78;5385567;32;46691;-73
2023/03/21 06:18:11;;;;;;;;;;;;;;;16.54;45.35;100377.97;5398048;32;36803;-60
2023/03/21 06:21:13;;;;;;;;;;;;;;;16.12;46.22;100370.94;5384865;32;35444;-74
2023/03/21 06:24:16;;;;;;;;;;;;;;;15.58;46.87;100392.72;5371535;32;34263;-64
2023/03/21 06:27:18;;;;;;;;;;;;;;;16.43;44.98;100385.78;5406137;32;34192;-73
2023/03/21 06:30:20;;;;;;;;;;;;;;;17.18;43.11;100389.72;5385834;32;35461;-77
2023/03/21 06:33:22;;;;;;;;;;;;;;;17.06;43.34;100385.22;5402237;32;35393;-60
2023/03/21 06:36:24;;;;;;;;;;;;;;;16.79;43.55;100387.91;5382538;32;34189;-60
2023/03/21 06:39:26;;;;;;;;;;;;;;;18.27;40.64;100369.84;5405732;32;34268;-62
2023/03/21 06:42:28;;;;;;;;;;;;;;;19.13;39.31;100379.59;5388896;32;34357;-75
2023/03/21 06:45:30;;;;;;;;;;;;;;;18.95;39.02;100379.13;5391529;32;35986;-64
2023/03/21 06:48:32;;;;;;;;;;;;;;;20.48;36.18;100370.88;5403664;32;34349;-63
2023/03/21 06:51:34;;;;;;;;;;;;;;;19.91;36.75;100378.97;5382310;32;34111;-72
2023/03/21 06:54:37;;;;;;;;;;;;;;;18.06;39.79;100389.97;5403807;32;35492;-81
2023/03/21 06:57:39;;;;;;;;;;;;;;;18.78;38.96;100374.19;5393905;32;44448;-69
2023/03/21 07:00:41;;;;;;;;;;;;;;;17.83;40.86;100391.56;5388519;32;34114;-78
2023/03/21 07:03:43;;;;;;;;;;;;;;;19.14;38.91;100386.63;5378026;32;34345;-70
2023/03/21 07:06:45;;;;;;;;;;;;;;;18.84;38.75;100382.59;5380311;32;34253;-76
2023/03/21 07:09:47;;;;;;;;;;;;;;;20.23;36.77;100395.12;5410116;32;34189;-73
2023/03/21 07:12:49;;;;;;;;;;;;;;;20.77;35.34;100391.66;5390244;32;34191;-77
2023/03/21 07:15:52;;;;;;;;;;;;;;;20.87;35.39;100386.44;5404651;32;33233;-78
2023/03/21 07:18:54;;;;;;;;;;;;;;;21.01;34.94;100388.81;5388258;32;34504;-72
2023/03/21 07:21:57;;;;;;;;;;;;;;;21.28;34.09;100388.34;5390406;32;33001;-62
2023/03/21 07:24:59;;;;;;;;;;;;;;;19.47;37.13;100394.72;5402537;32;34380;-72
2023/03/21 07:28:07;;;;;;;;;;;;;;;20.18;36.69;100391.94;5399610;32;36085;-62
2023/03/21 07:31:14;;;;;;;;;;;;;;;20.98;35.16;100391.72;5399594;32;44644;-76
2023/03/21 07:34:17;;;;;;;;;;;;;;;21.55;33.94;100390.53;5394532;32;34559;-62
2023/03/21 07:37:20;;;;;;;;;;;;;;;23.50;30.18;100385.66;5415902;32;35413;-64
2023/03/21 07:40:22;;;;;;;;;;;;;;;23.97;29.31;100383.06;5394185;32;34115;-75
2023/03/21 07:43:24;;;;;;;;;;;;;;;23.12;30.61;100386.53;5403446;32;34354;-63
2023/03/21 07:46:26;;;;;;;;;;;;;;;23.03;30.94;100382.00;5408588;32;34460;-77
2023/03/21 07:49:28;;;;;;;;;;;;;;;23.57;30.11;100376.06;5401188;32;35659;-84
2023/03/21 07:52:30;;;;;;;;;;;;;;;24.97;27.54;100369.69;5402918;32;34248;-62
2023/03/21 07:55:35;;;;;;;;;;;;;;;24.58;28.62;100369.09;5397919;32;34107;-74
2023/03/21 07:58:37;;;;;;;;;;;;;;;23.44;29.93;100378.19;5403617;32;35873;-62
2023/03/21 08:01:39;;;;;;;;;;;;;;;24.31;28.19;100377.97;5385989;32;44965;-65
2023/03/21 08:04:42;;;;;;;;;;;;;;;26.28;25.51;100371.53;5385252;32;34445;-63
2023/03/21 08:07:44;;;;;;;;;;;;;;;23.15;29.59;100381.75;5405682;32;34673;-70
2023/03/21 08:10:46;;;;;;;;;;;;;;;21.16;33.21;100382.19;5400399;32;34660;-63
2023/03/21 08:13:48;;;;;;;;;;;;;;;21.17;33.27;100377.69;5393164;32;35648;-69
2023/03/21 08:16:50;;;;;;;;;;;;;;;19.77;35.88;100385.34;5383616;32;35589;-67
2023/03/21 08:19:52;;;;;;;;;;;;;;;21.03;33.60;100384.19;5390952;32;34347;-65
2023/03/21 08:22:54;;;;;;;;;;;;;;;20.23;35.05;100384.44;5392836;32;34432;-68
2023/03/21 08:25:56;;;;;;;;;;;;;;;20.06;35.48;100388.44;5399972;32;36019;-64
2023/03/21 08:28:59;;;;;;;;;;;;;;;18.82;36.90;100394.31;5398034;32;34350;-62
2023/03/21 08:32:01;;;;;;;;;;;;;;;18.59;37.73;100385.28;5399893;32;37639;-71
2023/03/21 08:35:04;;;;;;;;;;;;;;;17.52;39.36;100391.00;5412744;32;34149;-63
2023/03/21 08:38:06;;;;;;;;;;;;;;;17.38;40.20;100392.87;5401942;32;34407;-66
2023/03/21 08:41:08;;;;;;;;;;;;;;;18.17;37.91;100389.25;5399732;32;44183;-74
2023/03/21 08:44:11;;;;;;;;;;;;;;;18.03;37.58;100399.03;5385158;32;34234;-81
2023/03/21 08:47:13;;;;;;;;;;;;;;;17.53;39.08;100387.38;5396040;32;35503;-70
2023/03/21 08:50:17;;;;;;;;;;;;;;;16.91;40.22;100392.41;5391843;32;34336;-76
2023/03/21 08:53:19;;;;;;;;;;;;;;;16.76;40.65;100388.97;5379001;32;34161;-64
2023/03/21 08:56:21;;;;;;;;;;;;;;;17.21;40.20;100399.31;5395768;32;34104;-62
2023/03/21 08:59:23;;;;;;;;;;;;;;;16.52;41.76;100406.41;5395862;32;35292;-86
2023/03/21 09:02:26;;;;;;;;;;;;;;;17.45;39.29;100395.03;5413669;32;34253;-61
2023/03/21 09:05:28;;;;;;;;;;;;;;;16.74;41.08;100393.53;5380421;32;34526;-61
2023/03/21 09:08:30;;;;;;;;;;;;;;;17.68;38.44;100377.50;5397594;32;34650;-74
2023/03/21 09:11:32;;;;;;;;;;;;;;;17.62;37.79;100391.22;5412739;32;34416;-77
2023/03/21 09:14:34;;;;;;;;;;;;;;;17.81;38.02;100375.72;5379282;32;34763;-61
2023/03/21 09:17:40;;;;;;;;;;;;;;;18.25;36.67;100371.75;5410108;32;34216;-66
2023/03/21 09:20:44;;;;;;;;;;;;;;;19.10;35.38;100379.81;5399025;32;44675;-71
2023/03/21 09:23:49;;;;;;;;;;;;;;;17.48;37.07;100391.31;5399771;32;34057;-61
2023/03/21 09:26:51;;;;;;;;;;;;;;;18.66;35.87;100383.88;5389877;32;35860;-61
2023/03/21 09:29:54;;;;;;;;;;;;;;;19.87;33.55;100375.69;5381549;32;34247;-63
2023/03/21 09:32:58;;;;;;;;;;;;;;;20.78;31.59;100377.34;5409532;32;33854;-69
2023/03/21 09:36:00;;;;;;;;;;;;;;;20.46;32.03;100372.78;5388156;32;35665;-65
2023/03/21 09:39:03;;;;;;;;;;;;;;;20.52;31.51;100376.78;5400805;32;36187;-61
2023/03/21 09:42:18;;;;;;;;;;;;;;;21.32;29.70;100381.81;5378334;32;34362;-67
2023/03/21 09:45:26;;;;;;;;;;;;;;;21.46;30.25;100372.63;5405768;32;34972;-70
2023/03/21 09:48:38;;;;;;;;;;;;;;;22.90;28.55;100371.56;5407200;32;35913;-61
2023/03/21 09:51:55;;;;;;;;;;;;;;;24.21;26.82;100374.47;5379684;32;35612;-60
2023/03/21 09:54:57;;;;;;;;;;;;;;;23.14;27.42;100366.66;5398432;32;34285;-66
2023/03/21 09:58:19;;;;;;;;;;;;;;;21.95;28.68;100377.25;5399245;32;33499;-60
2023/03/21 10:01:40;;;;;;;;;;;;;;;22.54;27.44;100370.31;5402006;32;35492;-77
2023/03/21 10:04:45;;;;;;;;;;;;;;;22.80;27.18;100359.94;5387026;32;44568;-66
2023/03/21 10:08:07;;;;;;;;;;;;;;;23.08;27.36;100364.53;5397230;32;35660;-71
2023/03/21 10:11:14;;;;;;;;;;;;;;;22.90;27.72;100366.19;5407746;32;44749;-70
2023/03/21 10:14:26;;;;;;;;;;;;;;;23.77;27.09;100360.81;5393534;32;35610;-67
2023/03/21 10:17:33;;;;;;;;;;;;;;;23.92;25.82;100369.25;5382051;32;33047;-72
2023/03/21 10:20:35;;;;;;;;;;;;;;;23.29;27.36;100363.53;5413587;32;34254;-63
2023/03/21 10:23:37;;;;;;;;;;;;;;;23.99;26.62;100365.81;5394486;32;35255;-64
2023/03/21 10:26:39;;;;;;;;;;;;;;;25.55;24.68;100349.53;5406252;32;44418;-69
2023/03/21 10:29:42;;;;;;;;;;;;;;;23.48;27.09;100352.78;5399202;32;34789;-61
2023/03/21 10:32:44;;;;;;;;;;;;;;;24.18;25.90;100362.22;5398471;32;34070;-83
2023/03/21 10:35:51;;;;;;;;;;;;;;;24.10;25.61;100350.53;5389300;32;35089;-74
2023/03/21 10:38:54;;;;;;;;;;;;;;;24.80;24.60;100347.19;5389112;32;36243;-63
2023/03/21 10:41:56;;;;;;;;;;;;;;;26.55;22.17;100331.91;5400270;32;35702;-62
2023/03/21 10:44:58;;;;;;;;;;;;;;;26.16;23.01;100332.41;5376956;32;34227;-64
2023/03/21 10:48:00;;;;;;;;;;;;;;;25.96;23.42;100336.38;5412974;32;33974;-72
2023/03/21 10:51:02;;;;;;;;;;;;;;;26.57;21.31;100336.13;5383252;32;34290;-76
2023/03/21 10:54:05;;;;;;;;;;;;;;;24.80;23.98;100333.75;5395269;32;33068;-63
2023/03/21 10:57:12;;;;;;;;;;;;;;;25.65;22.72;100334.12;5393216;32;34183;-60
2023/03/21 11:00:18;;;;;;;;;;;;;;;25.01;23.77;100329.91;5395648;32;46355;-64
2023/03/21 11:03:24;;;;;;;;;;;;;;;24.16;24.92;100337.34;5412833;32;34203;-79
2023/03/21 11:06:26;;;;;;;;;;;;;;;23.74;24.67;100331.56;5373866;32;34296;-61
2023/03/21 11:09:48;;;;;;;;;;;;;;;22.98;25.85;100324.31;5414295;32;34207;-72
2023/03/21 11:12:57;;;;;;;;;;;;;;;22.58;26.66;100323.53;5404306;32;34867;-72
2023/03/21 11:16:08;;;;;;;;;;;;;;;20.97;28.31;100312.56;5388511;32;35774;-64
2023/03/21 11:19:12;;;;;;;;;;;;;;;21.55;28.22;100324.53;5399945;32;44740;-62
2023/03/21 11:22:15;;;;;;;;;;;;;;;20.72;29.15;100303.06;5389584;32;35890;-62
2023/03/21 11:25:30;;;;;;;;;;;;;;;21.49;28.55;100314.38;5393542;32;34313;-84
2023/03/21 11:28:33;;;;;;;;;;;;;;;21.14;29.12;100303.12;5384911;32;34325;-76
2023/03/21 11:31:37;;;;;;;;;;;;;;;21.23;29.08;100310.38;5398159;32;34342;-73
2023/03/21 11:34:42;;;;;;;;;;;;;;;20.76;30.39;100301.84;5400274;32;44367;-69
2023/03/21 11:37:49;;;;;;;;;;;;;;;23.01;27.36;100291.03;5399293;32;35833;-66
2023/03/21 11:40:53;;;;;;;;;;;;;;;24.10;25.66;100273.50;5408908;32;34302;-61
2023/03/21 11:43:55;;;;;;;;;;;;;;;24.32;25.35;100277.59;5392873;32;34252;-60
2023/03/21 11:46:57;;;;;;;;;;;;;;;23.07;26.79;100278.91;5414252;32;33738;-67
2023/03/21 11:50:00;;;;;;;;;;;;;;;23.28;26.54;100257.28;5398785;32;34735;-60
2023/03/21 11:53:09;;;;;;;;;;;;;;;23.31;26.71;100271.22;5399334;32;35701;-64
2023/03/21 11:56:27;;;;;;;;;;;;;;;23.48;26.33;100273.16;5399970;32;45147;-65
2023/03/21 11:59:37;;;;;;;;;;;;;;;22.43;27.73;100262.34;5377443;32;35462;-72
2023/03/21 12:02:42;;;;;;;;;;;;;;;24.54;25.05;100257.56;5399244;32;44644;-63
2023/03/21 12:06:05;;;;;;;;;;;;;;;22.22;27.57;100258.06;5375849;32;34897;-74
2023/03/21 12:09:08;;;;;;;;;;;;;;;25.00;24.56;100244.88;5395997;32;35449;-75
2023/03/21 12:12:15;;;;;;;;;;;;;;;22.20;27.48;100250.19;5413268;32;44408;-75
2023/03/21 12:15:24;;;;;;;;;;;;;;;21.88;27.38;100250.34;5398135;32;35574;-77
2023/03/21 12:18:44;;;;;;;;;;;;;;;21.84;27.25;100251.63;5404963;32;35026;-60
2023/03/21 12:22:05;;;;;;;;;;;;;;;20.16;30.40;100252.50;5402760;32;46052;-64
2023/03/21 12:25:33;;;;;;;;;;;;;;;19.62;31.98;100263.91;5397357;32;33843;-73
2023/03/21 12:28:55;;;;;;;;;;;;;;;19.79;31.21;100252.78;5411403;32;35663;-70
2023/03/21 12:31:57;;;;;;;;;;;;;;;20.24;30.01;100255.38;5402110;32;35833;-64
2023/03/21 12:35:02;;;;;;;;;;;;;;;19.59;31.57;100253.50;5401395;32;34808;-61
2023/03/21 12:38:15;;;;;;;;;;;;;;;19.87;31.59;100253.00;5404465;32;34354;-65
2023/03/21 12:41:37;;;;;;;;;;;;;;;20.26;30.92;100250.75;5395597;32;43565;-67
2023/03/21 12:44:40;;;;;;;;;;;;;;;20.45;30.76;100248.28;5408284;32;45081;-65
2023/03/21 12:47:45;;;;;;;;;;;;;;;19.63;30.81;100247.78;5398897;32;35394;-64
2023/03/21 12:50:49;;;;;;;;;;;;;;;20.05;29.73;100239.16;5399281;32;32811;-62
2023/03/21 12:53:53;;;;;;;;;;;;;;;20.79;28.40;100214.28;5395230;32;34728;-60
2023/03/21 12:57:12;;;;;;;;;;;;;;;24.08;24.40;100218.25;5388292;32;35350;-60
2023/03/21 13:00:21;;;;;;;;;;;;;;;26.12;21.89;100207.16;5391930;32;44757;-62
2023/03/21 13:03:26;;;;;;;;;;;;;;;26.28;21.24;100200.97;5380904;32;35623;-61
2023/03/21 13:06:40;;;;;;;;;;;;;;;25.66;21.33;100199.41;5377375;32;45075;-69
2023/03/21 13:09:42;;;;;;;;;;;;;;;21.51;27.49;100199.25;5389854;32;34101;-71
2023/03/21 13:12:48;;;;;;;;;;;;;;;19.86;30.35;100208.62;5403750;32;34323;-74
2023/03/21 13:16:08;;;;;;;;;;;;;;;20.19;29.72;100210.37;5407749;32;34200;-68
2023/03/21 13:19:29;;;;;;;;;;;;;;;18.98;31.58;100215.59;5394235;32;43554;-65
2023/03/21 13:22:31;;;;;;;;;;;;;;;18.58;31.81;100202.63;5403322;32;35669;-61
2023/03/21 13:25:37;;;;;;;;;;;;;;;19.84;29.66;100202.59;5391055;32;34168;-61
2023/03/21 13:28:39;;;;;;;;;;;;;;;20.36;28.58;100194.81;5384139;32;44632;-71
2023/03/21 13:31:46;;;;;;;;;;;;;;;19.87;28.91;100194.31;5398444;32;33753;-59
2023/03/21 13:34:54;;;;;;;;;;;;;;;19.76;28.77;100191.66;5386942;32;34424;-71
2023/03/21 13:37:57;;;;;;;;;;;;;;;20.80;27.39;100177.72;5400464;32;35933;-71
2023/03/21 13:41:00;;;;;;;;;;;;;;;23.73;23.75;100185.84;5380031;32;36055;-65
2023/03/21 13:44:02;;;;;;;;;;;;;;;22.69;25.11;100184.13;5385034;32;34310;-70
2023/03/21 13:47:05;;;;;;;;;;;;;;;20.87;26.92;100199.47;5411158;32;35684;-75
2023/03/21 13:50:16;;;;;;;;;;;;;;;19.45;29.90;100201.25;5395509;32;33673;-63
2023/03/21 13:53:22;;;;;;;;;;;;;;;19.96;28.40;100195.38;5406778;32;35556;-66
2023/03/21 13:56:24;;;;;;;;;;;;;;;20.66;26.96;100184.25;5394932;32;35970;-72
2023/03/21 13:59:40;;;;;;;;;;;;;;;19.74;28.41;100181.12;5394451;32;34774;-71
2023/03/21 14:02:56;;;;;;;;;;;;;;;20.64;27.61;100185.38;5404402;32;46093;-67
2023/03/21 14:05:58;;;;;;;;;;;;;;;20.38;27.92;100176.84;5359539;32;34328;-75
2023/03/21 14:09:00;;;;;;;;;;;;;;;21.02;27.37;100166.91;5410675;32;36308;-74
2023/03/21 14:12:04;;;;;;;;;;;;;;;20.64;28.47;100170.19;5358827;32;869206;-61
2023/03/21 14:15:11;;;;;;;;;;;;;;;20.38;29.13;100167.00;5390199;32;44436;-60
2023/03/21 14:18:18;;;;;;;;;;;;;;;20.48;28.53;100159.09;5400119;32;34209;-62
2023/03/21 14:21:36;;;;;;;;;;;;;;;20.67;27.80;100169.06;5387374;32;34184;-76
2023/03/21 14:24:40;;;;;;;;;;;;;;;20.27;27.42;100159.03;5396085;32;38684;-62
2023/03/21 14:27:42;;;;;;;;;;;;;;;18.98;28.59;100152.50;5399599;32;34537;-79
2023/03/21 14:30:44;;;;;;;;;;;;;;;19.20;28.30;100154.38;5410255;32;35488;-73
2023/03/21 14:33:50;;;;;;;;;;;;;;;19.26;27.58;100147.72;5380964;32;33734;-74
2023/03/21 14:36:52;;;;;;;;;;;;;;;19.22;28.09;100147.09;5404977;32;34306;-84
2023/03/21 14:40:07;;;;;;;;;;;;;;;18.72;29.47;100138.56;5404415;32;34156;-74
2023/03/21 14:43:10;;;;;;;;;;;;;;;19.77;28.69;100136.50;5380952;32;44424;-77
2023/03/21 14:46:12;;;;;;;;;;;;;;;19.19;30.24;100149.97;5407090;32;35945;-76
2023/03/21 14:49:19;;;;;;;;;;;;;;;19.12;31.10;100146.09;5395299;32;35480;-62
2023/03/21 14:52:23;;;;;;;;;;;;;;;19.50;30.72;100135.06;5393141;32;37287;-75
2023/03/21 14:55:26;;;;;;;;;;;;;;;18.62;32.12;100143.72;5395795;32;36098;-74
2023/03/21 14:58:29;;;;;;;;;;;;;;;18.99;31.52;100142.72;5391286;32;34749;-60
2023/03/21 15:01:31;;;;;;;;;;;;;;;19.41;30.24;100139.34;5381936;32;35752;-61
2023/03/21 15:04:34;;;;;;;;;;;;;;;19.10;29.72;100134.75;5361678;32;34220;-70
2023/03/21 15:07:36;;;;;;;;;;;;;;;19.19;29.88;100144.66;5395124;32;35687;-70
2023/03/21 15:10:38;;;;;;;;;;;;;;;19.97;28.12;100135.75;5368038;32;34077;-64
2023/03/21 15:13:44;;;;;;;;;;;;;;;19.18;28.92;100140.31;5395053;32;34265;-70
2023/03/21 15:16:46;;;;;;;;;;;;;;;19.89;27.96;100138.19;5383294;32;34158;-69
2023/03/21 15:19:49;;;;;;;;;;;;;;;19.35;29.25;100138.97;5392479;32;35446;-62
2023/03/21 15:22:51;;;;;;;;;;;;;;;18.72;30.60;100133.22;5390403;32;34518;-61
2023/03/21 15:25:53;;;;;;;;;;;;;;;19.27;30.34;100122.75;5371007;32;34166;-70
2023/03/21 15:28:56;;;;;;;;;;;;;;;18.71;31.42;100128.03;5398725;32;34530;-62
2023/03/21 15:31:58;;;;;;;;;;;;;;;18.23;32.07;100114.81;5391590;32;33693;-62
2023/03/21 15:35:04;;;;;;;;;;;;;;;18.37;32.61;100115.47;5389439;32;35935;-71
2023/03/21 15:38:19;;;;;;;;;;;;;;;18.28;33.91;100128.59;5395401;32;34388;-62
2023/03/21 15:41:21;;;;;;;;;;;;;;;17.86;34.80;100126.38;5385918;32;34496;-70
2023/03/21 15:44:24;;;;;;;;;;;;;;;17.44;35.90;100134.75;5401742;32;35417;-70
2023/03/21 15:47:41;;;;;;;;;;;;;;;17.66;35.58;100137.56;5390803;32;34786;-62
2023/03/21 15:50:47;;;;;;;;;;;;;;;17.70;35.38;100136.38;5402694;32;46184;-62
2023/03/21 15:53:50;;;;;;;;;;;;;;;17.70;35.32;100130.22;5392644;32;35424;-71